Terminal Aerodrome Forecast
Issued by NWS Pueblo, CO

Home | Current Version | Previous Version | Text Only | Print | Product List | Glossary On
Versions: 1 2 3 4 5 6 7 8 9 10 11 12 13 14 15 16 17 18 19 20 21 22 23 24 25 26 27 28 29
000
FTUS45 KPUB 280520
TAFALS
TAF
KALS 280520Z 2806/2906 31008KT P6SM SKC
     FM281000 VRB04KT P6SM SKC
     FM282000 26008KT P6SM FEW070
     FM282200 27014KT P6SM SCT070
     FM290200 30007KT P6SM SKC=

USA.gov is the U.S. government's official web portal to all federal, state and local government web resources and services.